createdAt,value
2022-10-16T00:01:47.089Z,100154.16
2022-10-16T00:04:15.877Z,100154.06
2022-10-16T00:06:44.346Z,100157.53
2022-10-16T00:09:12.784Z,100155.81
2022-10-16T00:11:42.780Z,100156.66
2022-10-16T00:14:14.132Z,100162.75
2022-10-16T00:16:43.025Z,100158.19
2022-10-16T00:19:14.010Z,100159.91
2022-10-16T00:21:43.446Z,100162.34
2022-10-16T00:24:12.637Z,100165.09
2022-10-16T00:26:42.083Z,100164.91
2022-10-16T00:29:11.090Z,100162.94
2022-10-16T00:31:39.669Z,100168.06
2022-10-16T00:34:07.936Z,100168.84
2022-10-16T00:36:37.992Z,100170.47
2022-10-16T00:39:06.542Z,100167.84
2022-10-16T00:41:35.944Z,100164.25
2022-10-16T00:44:06.217Z,100165.00
2022-10-16T00:46:39.567Z,100165.88
2022-10-16T00:49:11.074Z,100165.88
2022-10-16T00:51:42.995Z,100157.19
2022-10-16T00:54:16.739Z,100160.59
2022-10-16T00:56:47.226Z,100164.00
2022-10-16T00:59:19.341Z,100164.69
2022-10-16T01:01:47.868Z,100167.06
2022-10-16T01:04:16.578Z,100169.63
2022-10-16T01:06:54.735Z,100172.00
2022-10-16T01:09:28.233Z,100168.44
2022-10-16T01:12:07.860Z,100170.13
2022-10-16T01:14:43.351Z,100181.44
2022-10-16T01:17:17.902Z,100180.69
2022-10-16T01:20:03.585Z,100171.84
2022-10-16T01:22:43.195Z,100166.56
2022-10-16T01:25:18.953Z,100167.31
2022-10-16T01:27:50.761Z,100163.56
2022-10-16T01:30:23.571Z,100169.63
2022-10-16T01:32:57.397Z,100160.78
2022-10-16T01:35:29.686Z,100161.66
2022-10-16T01:38:05.999Z,100166.81
2022-10-16T01:40:36.500Z,100158.81
2022-10-16T01:43:09.567Z,100157.03
2022-10-16T01:45:39.120Z,100171.06
2022-10-16T01:48:10.809Z,100179.75
2022-10-16T01:50:42.642Z,100187.66
2022-10-16T01:53:15.683Z,100179.81
2022-10-16T01:55:48.713Z,100187.72
2022-10-16T01:58:18.650Z,100181.72
2022-10-16T02:00:50.331Z,100185.25
2022-10-16T02:03:22.026Z,100184.44
2022-10-16T02:05:55.780Z,100188.00
2022-10-16T02:08:26.915Z,100184.44
2022-10-16T02:10:55.476Z,100190.53
2022-10-16T02:13:31.526Z,100188.75
2022-10-16T02:16:01.317Z,100187.88
2022-10-16T02:18:31.894Z,100182.88
2022-10-16T02:21:03.601Z,100187.13
2022-10-16T02:23:40.380Z,100200.41
2022-10-16T02:26:14.723Z,100189.03
2022-10-16T02:28:49.598Z,100191.66
2022-10-16T02:31:25.284Z,100189.84
2022-10-16T02:33:57.109Z,100181.88
2022-10-16T02:36:26.063Z,100184.50
2022-10-16T02:38:55.729Z,100182.72
2022-10-16T02:41:26.371Z,100182.81
2022-10-16T02:43:57.163Z,100186.47
2022-10-16T02:46:25.541Z,100181.19
2022-10-16T02:48:54.147Z,100189.84
2022-10-16T02:51:25.076Z,100185.53
2022-10-16T02:53:53.380Z,100195.13
2022-10-16T02:56:22.322Z,100195.19
2022-10-16T02:58:50.614Z,100194.44
2022-10-16T03:01:20.734Z,100193.44
2022-10-16T03:03:49.287Z,100209.31
2022-10-16T03:06:17.764Z,100196.31
2022-10-16T03:08:46.442Z,100204.13
2022-10-16T03:11:14.812Z,100201.41
2022-10-16T03:13:43.301Z,100209.41
2022-10-16T03:16:11.766Z,100206.84
2022-10-16T03:18:42.077Z,100215.69
2022-10-16T03:21:10.523Z,100216.56
2022-10-16T03:23:38.835Z,100218.41
2022-10-16T03:26:07.593Z,100223.69
2022-10-16T03:28:35.991Z,100227.25
2022-10-16T03:31:04.416Z,100228.13
2022-10-16T03:33:32.826Z,100228.13
2022-10-16T03:36:03.005Z,100235.16
2022-10-16T03:38:31.533Z,100229.97
2022-10-16T03:41:00.117Z,100236.97
2022-10-16T03:43:28.502Z,100238.81
2022-10-16T03:45:57.168Z,100233.53
2022-10-16T03:48:25.604Z,100247.72
2022-10-16T03:50:54.041Z,100238.97
2022-10-16T03:53:24.731Z,100242.63
2022-10-16T03:55:53.188Z,100232.34
2022-10-16T03:58:22.400Z,100243.03
2022-10-16T04:00:50.993Z,100237.16
2022-10-16T04:03:20.497Z,100248.03
2022-10-16T04:05:48.912Z,100250.81
2022-10-16T04:08:17.293Z,100247.56
2022-10-16T04:10:48.091Z,100252.09
2022-10-16T04:13:17.218Z,100249.59
2022-10-16T04:15:47.182Z,100249.59
2022-10-16T04:18:16.080Z,100252.31
2022-10-16T04:20:44.727Z,100247.19
2022-10-16T04:23:13.095Z,100257.78
2022-10-16T04:25:41.599Z,100249.91
2022-10-16T04:28:12.784Z,100254.97
2022-10-16T04:30:41.735Z,100255.88
2022-10-16T04:33:11.425Z,100254.88
2022-10-16T04:35:39.957Z,100253.16
2022-10-16T04:38:08.288Z,100264.38
2022-10-16T04:40:37.525Z,100262.63
2022-10-16T04:43:07.142Z,100266.09
2022-10-16T04:45:36.732Z,100267.81
2022-10-16T04:48:05.378Z,100269.50
2022-10-16T04:50:33.731Z,100263.31
2022-10-16T04:53:08.520Z,100272.91
2022-10-16T04:55:37.447Z,100266.16
2022-10-16T04:58:09.112Z,100268.97
2022-10-16T05:00:41.282Z,100273.66
2022-10-16T05:03:11.516Z,100284.59
2022-10-16T05:05:52.029Z,100276.38
2022-10-16T05:08:20.528Z,100285.47
2022-10-16T05:10:51.562Z,100281.41
2022-10-16T05:13:22.546Z,100281.81
2022-10-16T05:15:52.496Z,100282.13
2022-10-16T05:18:21.186Z,100285.81
2022-10-16T05:20:50.092Z,100284.19
2022-10-16T05:23:18.483Z,100290.47
2022-10-16T05:25:55.090Z,100294.94
2022-10-16T05:28:26.941Z,100291.38
2022-10-16T05:30:57.089Z,100293.09
2022-10-16T05:33:27.421Z,100290.59
2022-10-16T05:35:55.919Z,100302.06
2022-10-16T05:38:24.668Z,100296.94
2022-10-16T05:40:57.377Z,100296.25
2022-10-16T05:43:26.293Z,100305.91
2022-10-16T05:46:00.336Z,100305.06
2022-10-16T05:48:29.926Z,100309.38
2022-10-16T05:50:59.708Z,100318.28
2022-10-16T05:53:29.941Z,100318.16
2022-10-16T05:55:59.344Z,100322.31
2022-10-16T05:58:31.129Z,100313.28
2022-10-16T06:01:06.389Z,100315.53
2022-10-16T06:03:36.067Z,100315.38
2022-10-16T06:06:12.329Z,100320.50
2022-10-16T06:08:41.680Z,100316.09
2022-10-16T06:11:12.473Z,100323.75
2022-10-16T06:13:43.688Z,100334.28
2022-10-16T06:16:15.270Z,100324.84
2022-10-16T06:18:43.687Z,100335.38
2022-10-16T06:21:14.868Z,100329.16
2022-10-16T06:23:43.696Z,100319.25
2022-10-16T06:26:14.153Z,100332.22
2022-10-16T06:28:43.697Z,100331.66
2022-10-16T06:31:14.528Z,100339.09
2022-10-16T06:33:43.745Z,100334.31
2022-10-16T06:36:14.410Z,100340.25
2022-10-16T06:38:44.570Z,100346.19
2022-10-16T06:41:18.236Z,100347.66
2022-10-16T06:43:50.479Z,100352.47
2022-10-16T06:46:24.713Z,100354.16
2022-10-16T06:48:53.620Z,100357.00
2022-10-16T06:51:26.708Z,100366.53
2022-10-16T06:54:05.258Z,100371.91
2022-10-16T06:56:40.019Z,100363.81
2022-10-16T06:59:08.341Z,100368.53
2022-10-16T07:01:38.254Z,100370.75
2022-10-16T07:04:07.047Z,100368.34
2022-10-16T07:06:36.300Z,100381.91
2022-10-16T07:09:07.363Z,100381.94
2022-10-16T07:11:36.432Z,100387.03
2022-10-16T07:14:05.729Z,100381.31
2022-10-16T07:16:35.379Z,100386.88
2022-10-16T07:19:05.491Z,100395.53
2022-10-16T07:21:37.517Z,100397.34
2022-10-16T07:24:08.954Z,100394.28
2022-10-16T07:26:40.316Z,100396.72
2022-10-16T07:29:10.042Z,100388.63
2022-10-16T07:31:39.692Z,100390.81
2022-10-16T07:34:10.011Z,100390.16
2022-10-16T07:36:38.495Z,100391.28
2022-10-16T07:39:08.102Z,100396.28
2022-10-16T07:41:38.057Z,100399.31
2022-10-16T07:44:07.728Z,100399.41
2022-10-16T07:46:37.324Z,100406.59
2022-10-16T07:49:11.502Z,100406.88
2022-10-16T07:51:42.031Z,100409.78
2022-10-16T07:54:12.385Z,100411.94
2022-10-16T07:56:43.761Z,100416.03
2022-10-16T07:59:13.378Z,100413.94
2022-10-16T08:01:45.284Z,100416.88
2022-10-16T08:04:15.484Z,100413.41
2022-10-16T08:06:45.731Z,100426.47
2022-10-16T08:09:15.723Z,100415.00
2022-10-16T08:11:44.254Z,100417.75
2022-10-16T08:14:13.364Z,100422.97
2022-10-16T08:16:44.131Z,100424.59
2022-10-16T08:19:16.762Z,100430.06
2022-10-16T08:21:45.374Z,100432.88
2022-10-16T08:24:14.737Z,100428.22
2022-10-16T08:26:43.320Z,100420.81
2022-10-16T08:29:11.962Z,100423.47
2022-10-16T08:31:40.889Z,100429.44
2022-10-16T08:34:11.477Z,100425.97
2022-10-16T08:36:44.450Z,100430.09
2022-10-16T08:39:16.369Z,100435.84
2022-10-16T08:42:14.461Z,100439.81
2022-10-16T08:45:07.830Z,100434.06
2022-10-16T08:47:46.802Z,100442.94
2022-10-16T08:50:23.890Z,100446.75
2022-10-16T08:52:57.927Z,100443.72
2022-10-16T08:55:45.021Z,100441.25
2022-10-16T08:58:15.341Z,100442.25
2022-10-16T09:00:46.611Z,100433.06
2022-10-16T09:03:23.273Z,100429.50
2022-10-16T09:06:03.989Z,100431.56
2022-10-16T09:08:47.347Z,100438.69
2022-10-16T09:11:25.764Z,100423.56
2022-10-16T09:14:01.022Z,100427.19
2022-10-16T09:16:36.181Z,100430.56
2022-10-16T09:19:14.803Z,100428.31
2022-10-16T09:21:46.405Z,100436.59
2022-10-16T09:24:27.128Z,100431.69
2022-10-16T09:27:01.745Z,100436.22
2022-10-16T09:29:30.505Z,100430.56
2022-10-16T09:32:14.431Z,100437.50
2022-10-16T09:34:47.915Z,100446.28
2022-10-16T09:37:21.298Z,100448.72
2022-10-16T09:39:54.259Z,100454.63
2022-10-16T09:42:37.207Z,100443.69
2022-10-16T09:45:06.959Z,100446.88
2022-10-16T09:47:45.387Z,100454.25
2022-10-16T09:50:31.710Z,100446.44
2022-10-16T09:53:08.413Z,100452.78
2022-10-16T09:55:38.769Z,100446.16
2022-10-16T09:58:18.299Z,100441.75
2022-10-16T10:00:54.475Z,100442.47
2022-10-16T10:03:41.494Z,100439.47
2022-10-16T10:06:23.254Z,100434.06
2022-10-16T10:08:57.832Z,100426.59
2022-10-16T10:11:46.862Z,100431.38
2022-10-16T10:14:26.622Z,100430.94
2022-10-16T10:17:06.298Z,100433.00
2022-10-16T10:19:42.063Z,100432.16
2022-10-16T10:22:26.522Z,100428.16
2022-10-16T10:25:14.971Z,100430.78
2022-10-16T10:28:00.954Z,100426.63
2022-10-16T10:30:42.390Z,100427.88
2022-10-16T10:33:17.738Z,100426.28
2022-10-16T10:35:52.145Z,100428.44
2022-10-16T10:38:33.124Z,100428.03
2022-10-16T10:41:25.431Z,100426.38
2022-10-16T10:44:08.553Z,100434.31
2022-10-16T10:46:45.768Z,100438.22
2022-10-16T10:49:48.845Z,100422.69
2022-10-16T10:52:39.770Z,100415.31
2022-10-16T10:55:19.875Z,100405.38
2022-10-16T10:58:08.549Z,100397.19
2022-10-16T11:00:48.375Z,100398.84
2022-10-16T11:03:37.034Z,100391.69
2022-10-16T11:06:11.006Z,100387.69
2022-10-16T11:08:49.187Z,100397.28
2022-10-16T11:11:23.038Z,100390.63
2022-10-16T11:14:02.528Z,100393.94
2022-10-16T11:16:37.748Z,100386.34
2022-10-16T11:19:15.731Z,100383.06
2022-10-16T11:21:51.731Z,100379.75
2022-10-16T11:24:26.050Z,100379.28
2022-10-16T11:26:57.724Z,100379.16
2022-10-16T11:29:31.974Z,100378.63
2022-10-16T11:32:08.067Z,100371.72
2022-10-16T11:34:43.291Z,100382.00
2022-10-16T11:37:14.903Z,100382.53
2022-10-16T11:39:46.282Z,100375.78
2022-10-16T11:42:21.675Z,100373.28
2022-10-16T11:45:01.510Z,100380.34
2022-10-16T11:50:33.893Z,100383.97
2022-10-16T11:53:18.730Z,100390.69
2022-10-16T11:55:48.105Z,100394.19
2022-10-16T11:58:25.218Z,100391.13
2022-10-16T12:01:02.021Z,100388.81
2022-10-16T12:03:39.606Z,100395.91
2022-10-16T12:06:25.651Z,100397.63
2022-10-16T12:08:57.107Z,100388.28
2022-10-16T12:11:33.037Z,100398.00
2022-10-16T12:14:22.658Z,100401.19
2022-10-16T12:17:00.810Z,100396.81
2022-10-16T12:19:32.736Z,100404.03
2022-10-16T12:22:05.927Z,100403.41
2022-10-16T12:24:38.861Z,100394.66
2022-10-16T12:27:29.186Z,100379.97
2022-10-16T12:30:01.665Z,100387.47
2022-10-16T12:32:46.083Z,100384.19
2022-10-16T12:35:24.090Z,100389.59
2022-10-16T12:37:53.990Z,100383.56
2022-10-16T12:40:30.825Z,100390.34
2022-10-16T12:43:02.499Z,100389.91
2022-10-16T12:45:33.959Z,100371.06
2022-10-16T12:48:03.961Z,100384.50
2022-10-16T12:50:40.627Z,100386.47
2022-10-16T12:53:20.961Z,100383.72
2022-10-16T12:55:59.976Z,100387.78
2022-10-16T12:58:56.206Z,100399.84
2022-10-16T13:01:41.663Z,100393.97
2022-10-16T13:04:35.924Z,100387.97
2022-10-16T13:07:28.305Z,100387.78
2022-10-16T13:10:12.047Z,100396.91
2022-10-16T13:13:05.060Z,100410.66
2022-10-16T13:15:51.454Z,100400.19
2022-10-16T13:18:28.793Z,100395.94
2022-10-16T13:21:16.705Z,100395.88
2022-10-16T13:23:57.769Z,100399.25
2022-10-16T13:26:43.629Z,100400.38
2022-10-16T13:29:12.614Z,100401.88
2022-10-16T13:31:41.794Z,100399.38
2022-10-16T13:34:16.829Z,100403.53
2022-10-16T13:36:47.642Z,100404.72
2022-10-16T13:39:24.174Z,100402.41
2022-10-16T13:42:09.518Z,100402.75
2022-10-16T13:44:44.426Z,100418.75
2022-10-16T13:47:18.986Z,100406.97
2022-10-16T13:49:50.232Z,100419.16
2022-10-16T13:52:20.761Z,100407.16
2022-10-16T13:54:51.315Z,100417.28
2022-10-16T13:57:27.302Z,100414.38
2022-10-16T13:59:57.569Z,100413.47
2022-10-16T14:02:31.146Z,100418.34
2022-10-16T14:05:00.794Z,100425.91
2022-10-16T14:07:32.398Z,100424.69
2022-10-16T14:10:11.531Z,100427.03
2022-10-16T14:12:39.925Z,100428.25
2022-10-16T14:15:20.510Z,100431.66
2022-10-16T14:17:53.895Z,100434.81
2022-10-16T14:20:28.771Z,100432.06
2022-10-16T14:23:04.096Z,100429.88
2022-10-16T14:25:35.101Z,100431.25
2022-10-16T14:28:05.761Z,100431.47
2022-10-16T14:30:37.079Z,100429.69
2022-10-16T14:33:06.946Z,100430.38
2022-10-16T14:35:41.468Z,100437.06
2022-10-16T14:38:22.017Z,100440.81
2022-10-16T14:40:52.693Z,100441.75
2022-10-16T14:43:24.699Z,100435.72
2022-10-16T14:45:56.344Z,100443.59
2022-10-16T14:48:25.868Z,100443.72
2022-10-16T14:50:59.461Z,100448.56
2022-10-16T14:53:36.567Z,100442.75
2022-10-16T14:56:10.909Z,100439.97
2022-10-16T14:58:39.611Z,100451.72
2022-10-16T15:01:12.775Z,100447.59
2022-10-16T15:03:41.676Z,100446.41
2022-10-16T15:06:13.255Z,100453.19
2022-10-16T15:08:41.957Z,100438.91
2022-10-16T15:11:14.867Z,100449.38
2022-10-16T15:13:43.664Z,100446.13
2022-10-16T15:16:14.746Z,100454.53
2022-10-16T15:18:43.686Z,100448.72
2022-10-16T15:21:24.741Z,100447.19
2022-10-16T15:23:54.956Z,100454.16
2022-10-16T15:26:28.666Z,100449.50
2022-10-16T15:29:00.145Z,100451.66
2022-10-16T15:31:30.797Z,100458.38
2022-10-16T15:34:05.389Z,100463.44
2022-10-16T15:36:37.541Z,100463.16
2022-10-16T15:39:06.674Z,100468.16
2022-10-16T15:41:42.617Z,100469.69
2022-10-16T15:44:11.725Z,100469.28
2022-10-16T15:46:45.289Z,100484.31
2022-10-16T15:49:13.987Z,100484.97
2022-10-16T15:51:43.901Z,100487.31
2022-10-16T15:54:12.650Z,100490.50
2022-10-16T15:56:43.004Z,100493.97
2022-10-16T15:59:11.491Z,100496.09
2022-10-16T16:01:39.954Z,100497.50
2022-10-16T16:04:15.595Z,100495.28
2022-10-16T16:06:48.972Z,100505.34
2022-10-16T16:09:17.771Z,100506.84
2022-10-16T16:11:53.353Z,100511.41
2022-10-16T16:14:21.757Z,100514.38
2022-10-16T16:16:50.480Z,100526.91
2022-10-16T16:19:22.096Z,100523.72
2022-10-16T16:21:50.680Z,100524.78
2022-10-16T16:24:20.394Z,100527.53
2022-10-16T16:26:55.840Z,100529.41
2022-10-16T16:29:24.441Z,100540.13
2022-10-16T16:32:00.309Z,100541.31
2022-10-16T16:34:29.356Z,100550.31
2022-10-16T16:36:58.742Z,100548.06
2022-10-16T16:39:27.179Z,100547.41
2022-10-16T16:41:57.851Z,100546.00
2022-10-16T16:44:27.499Z,100550.03
2022-10-16T16:46:56.464Z,100554.63
2022-10-16T16:49:25.050Z,100556.66
2022-10-16T16:51:55.019Z,100554.31
2022-10-16T16:54:23.713Z,100557.16
2022-10-16T16:56:56.337Z,100560.84
2022-10-16T16:59:26.705Z,100557.47
2022-10-16T17:01:57.081Z,100562.78
2022-10-16T17:04:25.796Z,100563.34
2022-10-16T17:06:55.660Z,100566.19
2022-10-16T17:09:24.749Z,100570.94
2022-10-16T17:11:53.461Z,100569.63
2022-10-16T17:14:23.429Z,100570.19
2022-10-16T17:16:54.069Z,100578.44
2022-10-16T17:19:22.676Z,100591.16
2022-10-16T17:21:52.622Z,100588.75
2022-10-16T17:24:21.730Z,100587.06
2022-10-16T17:26:50.886Z,100591.63
2022-10-16T17:29:20.394Z,100596.94
2022-10-16T17:31:51.213Z,100593.41
2022-10-16T17:34:21.618Z,100599.66
2022-10-16T17:36:50.177Z,100606.19
2022-10-16T17:39:19.700Z,100602.97
2022-10-16T17:41:49.289Z,100612.03
2022-10-16T17:44:21.098Z,100610.44
2022-10-16T17:46:51.987Z,100604.66
2022-10-16T17:49:21.874Z,100609.38
2022-10-16T17:51:52.221Z,100606.13
2022-10-16T17:54:21.550Z,100602.75
2022-10-16T17:56:50.282Z,100602.25
2022-10-16T17:59:23.373Z,100601.69
2022-10-16T18:01:53.511Z,100610.63
2022-10-16T18:04:22.713Z,100612.81
2022-10-16T18:06:51.322Z,100609.47
2022-10-16T18:09:23.034Z,100619.50
2022-10-16T18:11:59.678Z,100614.41
2022-10-16T18:14:30.400Z,100617.13
2022-10-16T18:17:03.198Z,100628.75
2022-10-16T18:19:31.674Z,100625.53
2022-10-16T18:22:00.657Z,100629.09
2022-10-16T18:24:29.434Z,100632.75
2022-10-16T18:26:58.123Z,100637.38
2022-10-16T18:29:28.567Z,100631.50
2022-10-16T18:32:00.315Z,100645.84
2022-10-16T18:34:30.568Z,100638.38
2022-10-16T18:36:59.050Z,100648.00
2022-10-16T18:39:27.619Z,100651.44
2022-10-16T18:42:00.025Z,100653.38
2022-10-16T18:44:29.032Z,100649.09
2022-10-16T18:46:59.509Z,100652.63
2022-10-16T18:49:28.402Z,100657.91
2022-10-16T18:51:58.806Z,100656.81
2022-10-16T18:54:27.582Z,100664.66
2022-10-16T18:56:56.382Z,100672.31
2022-10-16T18:59:26.795Z,100665.31
2022-10-16T19:01:55.744Z,100682.66
2022-10-16T19:04:24.165Z,100675.56
2022-10-16T19:06:54.615Z,100681.78
2022-10-16T19:09:25.799Z,100685.47
2022-10-16T19:11:54.599Z,100689.38
2022-10-16T19:14:23.281Z,100697.75
2022-10-16T19:16:53.480Z,100704.66
2022-10-16T19:19:24.007Z,100697.56
2022-10-16T19:21:56.624Z,100699.47
2022-10-16T19:24:26.484Z,100702.56
2022-10-16T19:26:55.090Z,100706.41
2022-10-16T19:29:24.757Z,100705.72
2022-10-16T19:31:53.348Z,100706.97
2022-10-16T19:34:21.709Z,100707.31
2022-10-16T19:36:50.641Z,100717.88
2022-10-16T19:41:49.997Z,100717.09
2022-10-16T19:44:21.657Z,100725.13
2022-10-16T19:46:50.792Z,100717.94
2022-10-16T19:49:22.289Z,100726.66
2022-10-16T19:51:54.628Z,100728.44
2022-10-16T19:54:23.311Z,100736.38
2022-10-16T19:56:53.408Z,100735.34
2022-10-16T19:59:22.067Z,100731.69
2022-10-16T20:01:50.862Z,100732.63
2022-10-16T20:04:19.378Z,100736.91
2022-10-16T20:06:47.928Z,100739.38
2022-10-16T20:09:16.461Z,100740.31
2022-10-16T20:11:45.597Z,100746.78
2022-10-16T20:14:15.564Z,100757.66
2022-10-16T20:16:43.963Z,100749.38
2022-10-16T20:19:12.555Z,100753.19
2022-10-16T20:21:41.192Z,100754.53
2022-10-16T20:24:12.308Z,100752.25
2022-10-16T20:26:40.835Z,100753.72
2022-10-16T20:29:09.779Z,100748.09
2022-10-16T20:31:39.937Z,100757.09
2022-10-16T20:34:10.805Z,100757.22
2022-10-16T20:36:40.606Z,100752.13
2022-10-16T20:39:09.892Z,100764.69
2022-10-16T20:41:38.288Z,100761.41
2022-10-16T20:44:09.193Z,100768.78
2022-10-16T20:46:37.502Z,100778.66
2022-10-16T20:49:11.612Z,100773.75
2022-10-16T20:51:52.480Z,100779.34
2022-10-16T20:54:22.959Z,100781.13
2022-10-16T20:56:53.162Z,100781.97
2022-10-16T20:59:21.888Z,100786.50
2022-10-16T21:01:50.296Z,100782.22
2022-10-16T21:04:20.451Z,100784.13
2022-10-16T21:06:49.065Z,100792.19
2022-10-16T21:09:17.672Z,100787.19
2022-10-16T21:11:46.120Z,100785.63
2022-10-16T21:14:15.073Z,100792.13
2022-10-16T21:16:46.987Z,100794.06
2022-10-16T21:19:15.320Z,100799.75
2022-10-16T21:21:45.151Z,100806.03
2022-10-16T21:24:16.613Z,100807.03
2022-10-16T21:26:46.184Z,100815.19
2022-10-16T21:29:14.872Z,100812.84
2022-10-16T21:31:43.925Z,100816.59
2022-10-16T21:34:12.457Z,100812.56
2022-10-16T21:36:44.473Z,100817.00
2022-10-16T21:39:14.912Z,100816.31
2022-10-16T21:41:46.916Z,100823.28
2022-10-16T21:44:16.208Z,100827.84
2022-10-16T21:46:46.891Z,100836.69
2022-10-16T21:49:18.015Z,100829.81
2022-10-16T21:51:51.111Z,100836.09
2022-10-16T21:54:21.607Z,100837.06
2022-10-16T21:56:50.381Z,100839.84
2022-10-16T21:59:18.875Z,100838.25
2022-10-16T22:01:47.434Z,100834.19
2022-10-16T22:04:17.817Z,100833.31
2022-10-16T22:06:48.581Z,100833.38
2022-10-16T22:09:17.058Z,100836.00
2022-10-16T22:11:46.210Z,100828.97
2022-10-16T22:14:16.931Z,100831.66
2022-10-16T22:16:46.102Z,100837.88
2022-10-16T22:19:19.082Z,100844.94
2022-10-16T22:21:51.945Z,100834.38
2022-10-16T22:24:20.529Z,100836.25
2022-10-16T22:26:50.651Z,100835.53
2022-10-16T22:29:19.167Z,100838.34
2022-10-16T22:31:47.761Z,100833.94
2022-10-16T22:34:16.427Z,100831.50
2022-10-16T22:36:45.157Z,100831.66
2022-10-16T22:39:15.448Z,100834.34
2022-10-16T22:41:44.390Z,100844.16
2022-10-16T22:44:14.212Z,100845.03
2022-10-16T22:46:42.869Z,100837.13
2022-10-16T22:49:11.446Z,100852.81
2022-10-16T22:51:40.326Z,100847.75
2022-10-16T22:54:08.777Z,100850.63
2022-10-16T22:56:38.725Z,100857.03
2022-10-16T22:59:07.950Z,100855.56
2022-10-16T23:01:40.015Z,100844.28
2022-10-16T23:04:08.539Z,100853.97
2022-10-16T23:06:37.147Z,100853.19
2022-10-16T23:09:05.476Z,100857.63
2022-10-16T23:11:34.371Z,100862.16
2022-10-16T23:14:04.816Z,100875.25
2022-10-16T23:16:33.406Z,100877.03
2022-10-16T23:19:02.365Z,100876.31
2022-10-16T23:21:31.183Z,100878.94
2022-10-16T23:24:00.268Z,100884.91
2022-10-16T23:26:29.231Z,100889.22
2022-10-16T23:29:00.550Z,100889.09
2022-10-16T23:31:31.645Z,100885.53
2022-10-16T23:34:00.857Z,100891.72
2022-10-16T23:36:29.838Z,100898.69
2022-10-16T23:38:58.356Z,100901.44
2022-10-16T23:41:26.984Z,100915.56
2022-10-16T23:43:55.459Z,100908.66
2022-10-16T23:48:55.427Z,100908.81
2022-10-16T23:51:24.281Z,100903.59
2022-10-16T23:53:54.028Z,100906.28
2022-10-16T23:56:22.947Z,100909.03
2022-10-16T23:58:51.469Z,100908.34
